• Join FlightAware (Why Join?)
  • Login
  • US Flag 
11:55PM EDT


 

Airport Tracker/Info


-or-


 

Live Flight TrackerFlight Track Log ✈ ASQ6177 ✈ 26-Apr-2013 ✈ KORD - KICT

Flight Track Log - Related Links

Times and Time Zones

All times are in EDT time to prevent confusion due to time zone crossing. See the ASQ6177 flight status page for this flight to view local times or setup timezone preferences in your user account.

Time Position Orientation Groundspeed Altitude Reporting Facility
EDT Latitude Longitude Course Direction KTS MPH feet Rate Location/Type
09:43AM 41.9478 -87.9058 254° West 161 185 36,000  Level Chicago Center
09:44AM 41.9333 -87.9333 235° Southwest 171 197 2,600 -23,640 Descending Chicago TRACON
09:45AM 41.9167 -88.0000 251° West 234 269 4,100 1,020 Climbing Chicago TRACON
09:46AM 41.9094 -88.1456 266° West 241 277 5,500 1,500 Climbing Chicago Center
09:47AM 41.9078 -88.2344 269° West 242 278 8,400 2,280 Climbing Chicago Center
09:48AM 41.9047 -88.3300 268° West 255 293 10,300 1,200 Climbing Chicago Center
09:49AM 41.8243 -88.5244 254° West  Level FlightAware Approximate
09:49AM 41.8911 -88.4417 261° West 302 348 10,900  Level Chicago Center
09:50AM 41.8608 -88.5578 251° West 329 379 11,800 1,020 Climbing Chicago Center
09:51AM 41.8236 -88.7072 252° West 353 406 13,100 1,140 Climbing Chicago Center
09:53AM 41.7925 -88.8325 252° West 357 411 14,200 1,200 Climbing Chicago Center
09:54AM 41.7606 -88.9581 251° West 359 413 15,600 1,080 Climbing Chicago Center
09:55AM 41.7297 -89.0803 251° West 351 404 16,500 900 Climbing Chicago Center
09:56AM 41.6983 -89.2075 252° West 360 414 17,500 840 Climbing Chicago Center
09:57AM 41.6589 -89.3558 250° West 356 410 18,300 840 Climbing Chicago Center
09:58AM 41.6261 -89.4817 251° West 359 413 19,300 900 Climbing Chicago Center
09:59AM 41.5969 -89.6011 252° West 360 414 20,200 960 Climbing Chicago Center
10:00AM 41.5631 -89.7275 250° West 363 418 21,300 960 Climbing Chicago Center
10:01AM 41.5306 -89.8553 251° West 364 419 22,200 1,020 Climbing Chicago Center
10:02AM 41.4917 -90.0050 251° West 360 414 23,500 1,080 Climbing Chicago Center
10:03AM 41.4583 -90.1286 250° West 357 411 24,500 960 Climbing Chicago Center
10:04AM 41.4267 -90.2489 251° West 349 402 25,500 900 Climbing Chicago Center
10:05AM 41.3944 -90.3692 250° West 347 399 26,400 720 Climbing Chicago Center
10:06AM 41.3636 -90.4861 251° West 340 391 27,000 240 Climbing Chicago Center
10:07AM 41.3217 -90.6333 249° West 358 412 27,000  Level Chicago Center
10:08AM 41.2594 -90.7439 233° Southwest 376 433 27,000  Level Chicago Center
10:09AM 41.1961 -90.8511 232° Southwest 373 429 27,000  Level Chicago Center
10:10AM 41.1294 -90.9631 232° Southwest 385 443 27,000  Level Chicago Center
10:11AM 41.0636 -91.0744 232° Southwest 386 444 27,000 540 Level Chicago Center
10:12AM 40.9986 -91.1828 232° Southwest 380 437 28,200 1,200 Climbing Chicago Center
10:13AM 40.9247 -91.3058 232° Southwest 357 411 29,600 1,200 Climbing Chicago Center
10:14AM 40.8714 -91.3947 232° Southwest 343 395 30,700 1,200 Climbing Chicago Center
10:15AM 40.8136 -91.4908 232° Southwest 337 388 32,100 1,380 Climbing Chicago Center
10:16AM 40.7461 -91.6022 231° Southwest 328 377 33,600 1,200 Climbing Chicago Center
10:17AM 40.6892 -91.6944 231° Southwest 327 376 34,600 960 Climbing Chicago Center
10:18AM 40.6331 -91.7872 231° Southwest 326 375 35,600 660 Climbing Chicago Center
10:19AM 40.5764 -91.8792 231° Southwest 326 375 36,000 180 Climbing Chicago Center
10:20AM 40.5172 -91.9789 232° Southwest 344 396 36,000  Level Chicago Center
10:21AM 40.4397 -92.1022 230° Southwest 365 420 36,000  Level Chicago Center
10:22AM 40.3739 -92.2075 231° Southwest 374 430 36,000  Level Chicago Center
10:24AM 40.3172 -92.3200 237° Southwest 372 428 36,000  Level Chicago Center
10:25AM 40.2675 -92.4367 241° Southwest 367 422 36,000  Level Chicago Center
10:26AM 40.2100 -92.5675 240° Southwest 364 419 36,000  Level Kansas City Center
10:27AM 40.1558 -92.6969 241° Southwest 364 419 36,000  Level Kansas City Center
10:28AM 40.1081 -92.8061 240° Southwest 362 417 36,000  Level Kansas City Center
10:29AM 40.0583 -92.9231 241° Southwest 363 418 36,000  Level Kansas City Center
10:31AM 39.9594 -93.1511 241° Southwest 363 418 36,000  Level Chicago Center
10:32AM 39.9000 -93.2883 241° Southwest 365 420 36,000  Level Kansas City Center
10:33AM 39.8500 -93.4025 240° Southwest 365 420 36,000  Level Kansas City Center
10:34AM 39.7989 -93.5158 240° Southwest 366 421 36,000  Level Kansas City Center
10:35AM 39.7497 -93.6308 241° Southwest 367 422 36,000  Level Kansas City Center
10:36AM 39.6922 -93.7597 240° Southwest 367 422 36,000  Level Kansas City Center
10:37AM 39.6442 -93.8703 241° Southwest 366 421 36,000  Level Kansas City Center
10:38AM 39.5958 -93.9800 240° Southwest 367 422 36,000  Level Kansas City Center
10:39AM 39.5389 -94.1069 240° Southwest 366 421 36,000  Level Kansas City Center
10:40AM 39.4894 -94.2158 240° Southwest 365 420 36,000  Level Kansas City Center
10:41AM 39.4331 -94.3425 240° Southwest 363 418 36,000  Level Kansas City Center
10:42AM 39.3847 -94.4503 240° Southwest 362 417 36,000  Level Kansas City Center
10:43AM 39.3358 -94.5581 240° Southwest 363 418 36,000  Level Kansas City Center
10:44AM 39.2786 -94.6819 239° Southwest 362 417 36,000  Level Kansas City Center
10:45AM 39.2294 -94.7897 240° Southwest 361 415 36,000  Level Kansas City Center
10:46AM 39.1714 -94.9164 239° Southwest 363 418 36,000  Level Kansas City Center
10:47AM 39.1211 -95.0247 239° Southwest 364 419 36,000 -120 Level Kansas City Center
10:48AM 39.0631 -95.1506 239° Southwest 368 423 35,800 -960 Descending Kansas City Center
10:49AM 39.0122 -95.2603 239° Southwest 357 411 34,100 -1,320 Descending Kansas City Center
10:50AM 38.9675 -95.3575 239° Southwest 333 383 33,100 -960 Descending Kansas City Center
10:51AM 38.9211 -95.4564 239° Southwest 335 386 32,200 -1,020 Descending Kansas City Center
10:52AM 38.8647 -95.5783 239° Southwest 356 410 31,100 -1,020 Descending Kansas City Center
10:53AM 38.8122 -95.6897 239° Southwest 376 433 30,100 -1,020 Descending Kansas City Center
10:54AM 38.7506 -95.8200 239° Southwest 382 440 29,000 -1,020 Descending Kansas City Center
10:56AM 38.7008 -95.9294 240° Southwest 374 430 28,000 -1,020 Descending Kansas City Center
10:57AM 38.6400 -96.0539 238° Southwest 370 426 26,900 -1,080 Descending Kansas City Center
10:58AM 38.5875 -96.1619 238° Southwest 373 429 25,900 -960 Descending Kansas City Center
10:59AM 38.5367 -96.2703 239° Southwest 371 427 25,000 -1,020 Descending Kansas City Center
11:00AM 38.4753 -96.3964 238° Southwest 374 430 23,800 -1,080 Descending Kansas City Center
11:01AM 38.4197 -96.5114 238° Southwest 375 432 22,800 -1,380 Descending Kansas City Center
11:02AM 38.3661 -96.6236 239° Southwest 372 428 21,000 -2,100 Descending Kansas City Center
11:03AM 38.3144 -96.7311 239° Southwest 360 414 18,500 -2,400 Descending Kansas City Center
11:03AM 38.2917 -96.7714 234° Southwest 349 402 17,800 -1,920 Descending Kansas City Center
11:04AM 38.2656 -96.8328 242° Southwest 339 390 16,600 -1,920 Descending Kansas City Center
11:04AM 38.2328 -96.8958 237° Southwest 325 374 15,500 -1,800 Descending Kansas City Center
11:05AM 38.2172 -96.9292 239° Southwest 326 375 14,800 -1,380 Descending Kansas City Center
11:05AM 38.1822 -96.9786 228° Southwest 302 348 14,100 -1,080 Descending Kansas City Center
11:06AM 38.1578 -96.9994 214° Southwest 295 339 13,700 -1,020 Descending Kansas City Center
11:06AM 38.1186 -97.0342 215° Southwest 261 300 13,100 -1,200 Descending Kansas City Center
11:07AM 38.0856 -97.0636 215° Southwest 266 306 12,500 -1,140 Descending Kansas City Center
11:07AM 38.0586 -97.0864 214° Southwest 256 295 12,000 -1,260 Descending Kansas City Center
11:08AM 38.0286 -97.1117 214° Southwest 248 285 11,200 -1,560 Descending Kansas City Center
11:08AM 38.0025 -97.1353 215° Southwest 231 266 10,300 -1,800 Descending Kansas City Center
11:09AM 37.9828 -97.1661 231° Southwest 229 264 9,400 -1,980 Descending Kansas City Center
11:09AM 37.9547 -97.2039 227° Southwest 244 281 8,300 -2,640 Descending Kansas City Center
11:10AM 37.9108 -97.2692 230° Southwest 242 278 5,400 -2,460 Descending Kansas City Center
11:11AM 37.8942 -97.2972 233° Southwest 244 281 4,500 -1,440 Descending Kansas City Center
11:11AM 37.8658 -97.3239 217° Southwest 220 253 4,000 -900 Descending Kansas City Center
11:12AM 37.8442 -97.3347 202° Southwest 228 262 3,600 -900 Descending Kansas City Center
11:12AM 37.8133 -97.3481 199° South 189 217 3,100 -600 Descending Kansas City Center
11:13AM 37.7925 -97.3578 200° South 206 237 3,000 -120 Descending Kansas City Center
11:13AM 37.7633 -97.3717 201° Southwest 196 226 3,000 -120 Level Kansas City Center
11:14AM 37.7364 -97.3833 199° South 191 220 2,900 -600 Descending Kansas City Center
11:14AM 37.7269 -97.3881 202° Southwest 137 158 2,500 -660 Descending Kansas City Center
11:15AM 37.7050 -97.3986 201° Southwest 150 173 2,200 -360 Descending Kansas City Center
11:15AM 37.6928 -97.4039 199° South 116 133 2,100 -600 Descending Kansas City Center
11:16AM 37.6717 -97.4131 199° South 132 152 1,600 -780 Descending Kansas City Center
11:18AM 37.6499 -97.4331 142° Southeast  Level Estimated
11:25AM 37.6499 -97.4331 142° Southeast  Level Estimated
11:26AM 37.6499 -97.4331 142° Southeast  Level Estimated
11:27AM 37.6499 -97.4331 142° Southeast  Level Estimated
11:28AM 37.6499 -97.4331 142° Southeast  Level Estimated